createdAt,value
2022-10-19T00:00:31.433Z,98458.75
2022-10-19T00:02:57.965Z,98464.81
2022-10-19T00:05:24.506Z,98466.50
2022-10-19T00:07:51.041Z,98468.66
2022-10-19T00:10:17.586Z,98470.63
2022-10-19T00:12:44.167Z,98480.31
2022-10-19T00:15:12.177Z,98485.53
2022-10-19T00:17:38.719Z,98487.78
2022-10-19T00:20:06.052Z,98494.69
2022-10-19T00:22:33.000Z,98492.41
2022-10-19T00:24:59.788Z,98490.94
2022-10-19T00:27:26.365Z,98498.13
2022-10-19T00:29:52.932Z,98499.78
2022-10-19T00:32:20.842Z,98500.59
2022-10-19T00:34:47.412Z,98493.94
2022-10-19T00:37:14.091Z,98494.50
2022-10-19T00:39:40.783Z,98495.00
2022-10-19T00:42:10.445Z,98486.69
2022-10-19T00:45:05.117Z,98487.28
2022-10-19T00:47:34.051Z,98487.00
2022-10-19T00:50:00.618Z,98478.78
2022-10-19T00:52:28.801Z,98493.22
2022-10-19T00:54:57.838Z,98489.41
2022-10-19T00:57:28.172Z,98490.09
2022-10-19T00:59:55.489Z,98488.19
2022-10-19T01:02:22.017Z,98492.44
2022-10-19T01:04:52.300Z,98496.31
2022-10-19T01:07:19.870Z,98490.53
2022-10-19T01:09:46.436Z,98487.72
2022-10-19T01:12:25.477Z,98488.91
2022-10-19T01:15:06.221Z,98495.09
2022-10-19T01:17:44.476Z,98492.84
2022-10-19T01:20:42.355Z,98491.78
2022-10-19T01:23:37.493Z,98491.09
2022-10-19T01:26:16.887Z,98487.50
2022-10-19T01:28:54.877Z,98486.09
2022-10-19T01:31:29.903Z,98491.34
2022-10-19T01:34:03.439Z,98484.97
2022-10-19T01:36:40.782Z,98475.28
2022-10-19T01:39:11.731Z,98471.13
2022-10-19T01:41:47.145Z,98464.75
2022-10-19T01:44:18.769Z,98464.97
2022-10-19T01:46:51.294Z,98466.34
2022-10-19T01:49:25.176Z,98467.72
2022-10-19T01:54:34.964Z,98462.72
2022-10-19T01:57:04.285Z,98459.66
2022-10-19T01:59:33.627Z,98463.56
2022-10-19T02:02:03.496Z,98452.47
2022-10-19T02:04:31.785Z,98446.88
2022-10-19T02:06:59.194Z,98449.34
2022-10-19T02:09:25.774Z,98437.97
2022-10-19T02:11:57.237Z,98436.03
2022-10-19T02:14:27.554Z,98447.72
2022-10-19T02:16:59.256Z,98442.81
2022-10-19T02:19:27.155Z,98448.13
2022-10-19T02:21:54.086Z,98444.56
2022-10-19T02:24:20.618Z,98441.78
2022-10-19T02:26:47.253Z,98445.97
2022-10-19T02:29:15.223Z,98440.06
2022-10-19T02:31:42.143Z,98439.25
2022-10-19T02:34:09.963Z,98432.56
2022-10-19T02:36:38.057Z,98434.53
2022-10-19T02:39:06.593Z,98433.47
2022-10-19T02:41:38.083Z,98434.34
2022-10-19T02:44:10.083Z,98434.16
2022-10-19T02:49:09.295Z,98431.59
2022-10-19T02:51:38.735Z,98421.66
2022-10-19T02:54:07.749Z,98419.19
2022-10-19T02:56:35.227Z,98423.03
2022-10-19T02:59:01.875Z,98413.69
2022-10-19T03:01:28.518Z,98415.34
2022-10-19T03:03:55.056Z,98407.09
2022-10-19T03:06:21.610Z,98412.94
2022-10-19T03:08:49.563Z,98407.41
2022-10-19T03:11:16.098Z,98413.00
2022-10-19T03:13:42.662Z,98409.22
2022-10-19T03:16:11.021Z,98412.31
2022-10-19T03:18:37.722Z,98411.75
2022-10-19T03:21:06.361Z,98410.13
2022-10-19T03:23:33.109Z,98410.13
2022-10-19T03:26:01.091Z,98407.06
2022-10-19T03:28:27.701Z,98406.75
2022-10-19T03:30:54.301Z,98403.28
2022-10-19T03:33:20.910Z,98406.94
2022-10-19T03:35:47.499Z,98405.75
2022-10-19T03:38:14.270Z,98404.66
2022-10-19T03:40:40.846Z,98402.34
2022-10-19T03:43:08.851Z,98399.38
2022-10-19T03:45:35.381Z,98401.75
2022-10-19T03:48:01.947Z,98405.16
2022-10-19T03:50:28.520Z,98408.38
2022-10-19T03:52:55.601Z,98395.91
2022-10-19T03:55:22.205Z,98411.69
2022-10-19T03:57:48.759Z,98406.94
2022-10-19T04:00:16.997Z,98404.97
2022-10-19T04:02:43.621Z,98402.09
2022-10-19T04:05:10.218Z,98407.59
2022-10-19T04:07:36.793Z,98409.44
2022-10-19T04:10:03.841Z,98413.84
2022-10-19T04:12:30.432Z,98409.44
2022-10-19T04:14:57.847Z,98412.00
2022-10-19T04:17:26.308Z,98405.06
2022-10-19T04:19:52.843Z,98405.66
2022-10-19T04:22:19.420Z,98406.44
2022-10-19T04:24:45.950Z,98411.63
2022-10-19T04:27:12.528Z,98410.00
2022-10-19T04:29:39.087Z,98409.22
2022-10-19T04:32:06.123Z,98416.47
2022-10-19T04:34:36.357Z,98410.13
2022-10-19T04:37:05.892Z,98412.34
2022-10-19T04:39:32.432Z,98414.00
2022-10-19T04:41:59.011Z,98415.13
2022-10-19T04:44:25.556Z,98407.59
2022-10-19T04:46:52.288Z,98413.38
2022-10-19T04:49:20.245Z,98405.06
2022-10-19T04:51:48.275Z,98407.31
2022-10-19T04:54:14.942Z,98407.03
2022-10-19T04:56:41.677Z,98401.72
2022-10-19T04:59:09.634Z,98397.59
2022-10-19T05:01:36.304Z,98395.34
2022-10-19T05:04:03.307Z,98396.72
2022-10-19T05:06:31.083Z,98405.28
2022-10-19T05:08:59.727Z,98403.97
2022-10-19T05:11:26.548Z,98405.97
2022-10-19T05:13:53.093Z,98398.53
2022-10-19T05:16:21.270Z,98401.41
2022-10-19T05:18:48.841Z,98402.78
2022-10-19T05:21:16.001Z,98400.53
2022-10-19T05:23:42.583Z,98395.53
2022-10-19T05:26:12.400Z,98394.97
2022-10-19T05:28:39.329Z,98395.75
2022-10-19T05:31:08.681Z,98395.78
2022-10-19T05:33:35.686Z,98389.25
2022-10-19T05:36:14.069Z,98394.69
2022-10-19T05:38:40.788Z,98390.81
2022-10-19T05:41:07.366Z,98388.94
2022-10-19T05:43:35.376Z,98394.63
2022-10-19T05:46:06.824Z,98388.25
2022-10-19T05:48:34.330Z,98387.91
2022-10-19T05:51:00.983Z,98392.28
2022-10-19T05:53:27.855Z,98393.56
2022-10-19T05:55:54.698Z,98395.47
2022-10-19T05:58:21.535Z,98392.75
2022-10-19T06:00:53.484Z,98403.28
2022-10-19T06:03:20.257Z,98404.06
2022-10-19T06:05:46.824Z,98400.41
2022-10-19T06:08:13.434Z,98398.75
2022-10-19T06:10:39.986Z,98399.84
2022-10-19T06:13:06.604Z,98397.00
2022-10-19T06:15:33.827Z,98393.13
2022-10-19T06:18:03.729Z,98402.66
2022-10-19T06:20:30.451Z,98402.81
2022-10-19T06:22:57.018Z,98399.44
2022-10-19T06:25:23.552Z,98411.25
2022-10-19T06:27:50.169Z,98404.00
2022-10-19T06:30:17.013Z,98407.56
2022-10-19T06:32:43.611Z,98414.69
2022-10-19T06:35:11.667Z,98420.78
2022-10-19T06:37:38.245Z,98418.81
2022-10-19T06:40:07.256Z,98416.53
2022-10-19T06:42:34.186Z,98426.78
2022-10-19T06:45:00.751Z,98427.75
2022-10-19T06:47:27.307Z,98428.19
2022-10-19T06:49:53.857Z,98438.09
2022-10-19T06:52:21.782Z,98433.38
2022-10-19T06:54:48.355Z,98440.81
2022-10-19T06:57:14.939Z,98446.25
2022-10-19T06:59:41.523Z,98448.50
2022-10-19T07:02:10.083Z,98446.84
2022-10-19T07:04:36.626Z,98445.16
2022-10-19T07:07:03.280Z,98454.63
2022-10-19T07:09:31.239Z,98453.50
2022-10-19T07:11:57.790Z,98453.34
2022-10-19T07:14:24.401Z,98456.44
2022-10-19T07:16:51.280Z,98459.19
2022-10-19T07:19:17.877Z,98472.75
2022-10-19T07:21:44.444Z,98466.34
2022-10-19T07:24:11.277Z,98454.84
2022-10-19T07:26:39.222Z,98457.22
2022-10-19T07:29:05.780Z,98463.34
2022-10-19T07:31:32.629Z,98461.06
2022-10-19T07:34:01.174Z,98465.03
2022-10-19T07:36:29.398Z,98469.91
2022-10-19T07:38:55.995Z,98451.56
2022-10-19T07:41:24.484Z,98448.19
2022-10-19T07:43:53.487Z,98453.63
2022-10-19T07:46:22.454Z,98454.13
2022-10-19T07:48:49.792Z,98459.53
2022-10-19T07:51:17.581Z,98453.31
2022-10-19T07:53:44.417Z,98454.25
2022-10-19T07:56:12.475Z,98454.09
2022-10-19T07:58:39.814Z,98459.53
2022-10-19T08:01:09.791Z,98459.19
2022-10-19T08:06:23.400Z,98461.56
2022-10-19T08:08:52.565Z,98453.91
2022-10-19T08:11:21.568Z,98451.44
2022-10-19T08:13:48.608Z,98452.38
2022-10-19T08:16:25.489Z,98454.47
2022-10-19T08:18:53.114Z,98455.28
2022-10-19T08:21:19.663Z,98454.06
2022-10-19T08:23:46.225Z,98451.13
2022-10-19T08:26:12.852Z,98450.00
2022-10-19T08:28:39.431Z,98456.22
2022-10-19T08:31:13.661Z,98451.72
2022-10-19T08:33:41.835Z,98455.84
2022-10-19T08:36:10.022Z,98458.72
2022-10-19T08:38:37.662Z,98455.03
2022-10-19T08:41:11.785Z,98459.47
2022-10-19T08:43:48.292Z,98452.38
2022-10-19T08:46:22.813Z,98454.00
2022-10-19T08:48:52.051Z,98465.31
2022-10-19T08:51:18.679Z,98463.44
2022-10-19T08:53:52.729Z,98463.91
2022-10-19T08:56:49.208Z,98468.38
2022-10-19T08:59:21.624Z,98471.66
2022-10-19T09:01:54.556Z,98471.31
2022-10-19T09:04:26.533Z,98471.53
2022-10-19T09:07:03.710Z,98463.78
2022-10-19T09:09:31.602Z,98470.75
2022-10-19T09:12:03.337Z,98468.94
2022-10-19T09:14:32.985Z,98469.16
2022-10-19T09:17:02.669Z,98468.13
2022-10-19T09:19:30.956Z,98466.59
2022-10-19T09:22:00.610Z,98468.50
2022-10-19T09:24:29.787Z,98459.72
2022-10-19T09:26:58.886Z,98464.44
2022-10-19T09:29:32.837Z,98461.78
2022-10-19T09:32:01.577Z,98458.75
2022-10-19T09:34:33.764Z,98463.81
2022-10-19T09:37:00.786Z,98458.91
2022-10-19T09:39:29.705Z,98459.22
2022-10-19T09:41:58.028Z,98473.03
2022-10-19T09:44:25.607Z,98463.34
2022-10-19T09:46:55.331Z,98481.00
2022-10-19T09:49:39.570Z,98481.72
2022-10-19T09:52:06.165Z,98491.31
2022-10-19T09:54:35.935Z,98489.31
2022-10-19T09:57:03.998Z,98482.66
2022-10-19T09:59:35.816Z,98484.84
2022-10-19T10:02:16.490Z,98493.59
2022-10-19T10:04:54.452Z,98495.22
2022-10-19T10:07:34.208Z,98497.88
2022-10-19T10:10:01.076Z,98494.72
2022-10-19T10:12:27.775Z,98494.72
2022-10-19T10:14:54.596Z,98506.06
2022-10-19T10:17:24.488Z,98499.88
2022-10-19T10:20:17.821Z,98506.06
2022-10-19T10:22:52.533Z,98508.56
2022-10-19T10:25:19.238Z,98516.28
2022-10-19T10:27:55.800Z,98519.13
2022-10-19T10:30:22.497Z,98514.63
2022-10-19T10:32:51.163Z,98511.31
2022-10-19T10:35:23.406Z,98502.44
2022-10-19T10:37:50.297Z,98506.72
2022-10-19T10:40:23.810Z,98500.66
2022-10-19T10:42:52.451Z,98490.81
2022-10-19T10:45:23.600Z,98498.75
2022-10-19T10:47:50.513Z,98485.56
2022-10-19T10:50:22.334Z,98477.63
2022-10-19T10:52:58.983Z,98476.28
2022-10-19T10:55:25.898Z,98475.50
2022-10-19T10:58:02.310Z,98466.34
2022-10-19T11:00:29.419Z,98466.59
2022-10-19T11:03:01.541Z,98462.81
2022-10-19T11:05:33.375Z,98461.13
2022-10-19T11:08:03.100Z,98462.81
2022-10-19T11:10:33.251Z,98457.63
2022-10-19T11:13:08.699Z,98445.16
2022-10-19T11:15:40.828Z,98442.28
2022-10-19T11:18:16.693Z,98438.84
2022-10-19T11:20:53.297Z,98434.09
2022-10-19T11:23:33.603Z,98429.25
2022-10-19T11:26:12.384Z,98427.91
2022-10-19T11:28:54.447Z,98417.03
2022-10-19T11:31:22.263Z,98421.31
2022-10-19T11:33:59.253Z,98416.97
2022-10-19T11:36:46.182Z,98413.63
2022-10-19T11:39:28.262Z,98409.94
2022-10-19T11:41:59.401Z,98399.00
2022-10-19T11:44:38.784Z,98392.69
2022-10-19T11:47:19.410Z,98389.91
2022-10-19T11:49:59.498Z,98383.63
2022-10-19T11:52:38.795Z,98381.25
2022-10-19T11:55:16.105Z,98369.25
2022-10-19T11:57:51.473Z,98374.25
2022-10-19T12:00:40.043Z,98369.41
2022-10-19T12:03:24.536Z,98371.28
2022-10-19T12:06:08.371Z,98368.06
2022-10-19T12:08:51.162Z,98362.69
2022-10-19T12:11:29.054Z,98365.00
2022-10-19T12:14:00.702Z,98359.16
2022-10-19T12:16:37.847Z,98354.28
2022-10-19T12:19:07.012Z,98351.00
2022-10-19T12:21:36.428Z,98345.06
2022-10-19T12:24:11.459Z,98346.03
2022-10-19T12:26:39.936Z,98345.41
2022-10-19T12:29:13.972Z,98347.53
2022-10-19T12:31:41.153Z,98349.69
2022-10-19T12:34:20.336Z,98352.47
2022-10-19T12:36:52.459Z,98337.25
2022-10-19T12:39:26.479Z,98334.28
2022-10-19T12:41:59.945Z,98327.22
2022-10-19T12:45:20.137Z,98318.91
2022-10-19T12:48:19.051Z,98321.06
2022-10-19T12:51:14.083Z,98323.78
2022-10-19T12:53:44.291Z,98312.00
2022-10-19T12:56:17.745Z,98310.47
2022-10-19T12:58:52.485Z,98318.78
2022-10-19T13:01:24.435Z,98305.72
2022-10-19T13:04:05.579Z,98313.38
2022-10-19T13:06:35.006Z,98307.41
2022-10-19T13:09:04.771Z,98304.06
2022-10-19T13:14:06.981Z,98302.91
2022-10-19T13:16:58.009Z,98309.13
2022-10-19T13:19:25.028Z,98299.25
2022-10-19T13:22:00.092Z,98306.28
2022-10-19T13:24:30.719Z,98300.28
2022-10-19T13:27:37.464Z,98298.81
2022-10-19T13:30:44.891Z,98294.41
2022-10-19T13:33:44.075Z,98299.53
2022-10-19T13:36:11.872Z,98296.50
2022-10-19T13:38:39.665Z,98285.97
2022-10-19T13:41:11.490Z,98285.97
2022-10-19T13:43:39.472Z,98299.47
2022-10-19T13:46:11.800Z,98282.69
2022-10-19T13:48:59.235Z,98282.56
2022-10-19T13:51:34.664Z,98283.06
2022-10-19T13:54:13.840Z,98274.72
2022-10-19T13:57:04.932Z,98271.47
2022-10-19T14:00:11.801Z,98272.00
2022-10-19T14:03:06.716Z,98264.00
2022-10-19T14:05:56.439Z,98258.38
2022-10-19T14:08:38.477Z,98266.78
2022-10-19T14:11:05.823Z,98270.66
2022-10-19T14:13:32.524Z,98275.53
2022-10-19T14:16:00.380Z,98265.91
2022-10-19T14:18:30.256Z,98261.72
2022-10-19T14:20:58.164Z,98256.22
2022-10-19T14:23:26.966Z,98257.38
2022-10-19T14:25:55.672Z,98248.38
2022-10-19T14:28:23.372Z,98246.47
2022-10-19T14:30:56.262Z,98237.88
2022-10-19T14:33:23.342Z,98244.59
2022-10-19T14:35:52.836Z,98238.25
2022-10-19T14:38:22.059Z,98242.06
2022-10-19T14:40:48.660Z,98237.44
2022-10-19T14:43:21.116Z,98236.72
2022-10-19T14:46:03.529Z,98236.66
2022-10-19T14:48:30.099Z,98235.47
2022-10-19T14:50:58.206Z,98234.50
2022-10-19T14:53:35.377Z,98237.75
2022-10-19T14:56:07.813Z,98236.38
2022-10-19T14:58:39.979Z,98240.72
2022-10-19T15:01:07.398Z,98231.91
2022-10-19T15:03:34.275Z,98232.19
2022-10-19T15:06:05.723Z,98229.31
2022-10-19T15:08:36.870Z,98234.78
2022-10-19T15:11:05.937Z,98226.63
2022-10-19T15:13:35.699Z,98221.78
2022-10-19T15:16:02.298Z,98226.53
2022-10-19T15:18:48.720Z,98222.53
2022-10-19T15:21:19.660Z,98224.69
2022-10-19T15:23:47.329Z,98229.66
2022-10-19T15:26:18.409Z,98221.09
2022-10-19T15:28:45.620Z,98225.66
2022-10-19T15:31:18.763Z,98231.97
2022-10-19T15:33:48.845Z,98229.75
2022-10-19T15:36:17.740Z,98219.88
2022-10-19T15:38:46.080Z,98220.28
2022-10-19T15:41:18.232Z,98217.50
2022-10-19T15:43:47.085Z,98220.19
2022-10-19T15:46:25.850Z,98222.56
2022-10-19T15:48:55.324Z,98214.31
2022-10-19T15:51:44.076Z,98222.38
2022-10-19T15:54:11.074Z,98218.94
2022-10-19T15:56:39.404Z,98227.25
2022-10-19T15:59:11.032Z,98226.47
2022-10-19T16:01:37.789Z,98229.09
2022-10-19T16:04:04.762Z,98222.75
2022-10-19T16:06:33.846Z,98222.41
2022-10-19T16:09:02.026Z,98209.09
2022-10-19T16:11:29.801Z,98214.91
2022-10-19T16:13:56.363Z,98204.44
2022-10-19T16:16:25.196Z,98204.81
2022-10-19T16:18:52.515Z,98212.47
2022-10-19T16:21:21.018Z,98203.78
2022-10-19T16:23:47.633Z,98200.56
2022-10-19T16:26:16.963Z,98200.56
2022-10-19T16:28:44.407Z,98202.69
2022-10-19T16:31:11.672Z,98195.94
2022-10-19T16:33:38.246Z,98192.47
2022-10-19T16:36:05.766Z,98203.44
2022-10-19T16:38:32.660Z,98201.63
2022-10-19T16:41:00.480Z,98208.34
2022-10-19T16:43:28.637Z,98204.81
2022-10-19T16:45:55.200Z,98204.22
2022-10-19T16:48:24.191Z,98208.09
2022-10-19T16:51:18.975Z,98216.78
2022-10-19T16:53:45.644Z,98219.53
2022-10-19T16:56:13.388Z,98214.94
2022-10-19T16:58:42.049Z,98214.06
2022-10-19T17:01:09.025Z,98222.94
2022-10-19T17:03:37.551Z,98224.09
2022-10-19T17:06:04.787Z,98218.63
2022-10-19T17:08:37.142Z,98219.53
2022-10-19T17:11:12.897Z,98215.66
2022-10-19T17:13:41.569Z,98215.44
2022-10-19T17:16:09.520Z,98214.94
2022-10-19T17:18:36.841Z,98212.16
2022-10-19T17:21:05.887Z,98209.66
2022-10-19T17:23:32.533Z,98212.09
2022-10-19T17:25:59.075Z,98215.97
2022-10-19T17:28:27.727Z,98211.84
2022-10-19T17:30:55.956Z,98220.69
2022-10-19T17:33:22.521Z,98218.75
2022-10-19T17:35:49.063Z,98227.91
2022-10-19T17:38:15.643Z,98227.09
2022-10-19T17:40:42.196Z,98233.75
2022-10-19T17:43:08.970Z,98228.81
2022-10-19T17:45:35.565Z,98229.94
2022-10-19T17:48:03.905Z,98236.00
2022-10-19T17:50:30.652Z,98227.72
2022-10-19T17:52:57.888Z,98223.56
2022-10-19T17:55:24.465Z,98223.56
2022-10-19T17:57:51.013Z,98223.88
2022-10-19T18:00:17.713Z,98224.97
2022-10-19T18:02:44.881Z,98228.00
2022-10-19T18:05:13.027Z,98221.66
2022-10-19T18:07:39.577Z,98226.31
2022-10-19T18:10:06.361Z,98225.78
2022-10-19T18:12:32.916Z,98216.69
2022-10-19T18:14:59.450Z,98214.22
2022-10-19T18:17:27.805Z,98218.91
2022-10-19T18:19:54.600Z,98220.28
2022-10-19T18:22:22.502Z,98214.22
2022-10-19T18:24:49.049Z,98204.56
2022-10-19T18:27:15.696Z,98199.56
2022-10-19T18:29:42.253Z,98194.06
2022-10-19T18:32:08.835Z,98193.75
2022-10-19T18:34:35.405Z,98192.38
2022-10-19T18:37:01.956Z,98197.38
2022-10-19T18:39:29.856Z,98191.06
2022-10-19T18:41:56.422Z,98185.53
2022-10-19T18:44:26.554Z,98177.25
2022-10-19T18:46:55.322Z,98175.81
2022-10-19T18:49:21.872Z,98166.13
2022-10-19T18:51:52.452Z,98167.44
2022-10-19T18:54:21.888Z,98161.31
2022-10-19T18:56:49.838Z,98163.47
2022-10-19T18:59:16.431Z,98161.47
2022-10-19T19:01:43.142Z,98165.59
2022-10-19T19:04:10.232Z,98162.81
2022-10-19T19:06:37.927Z,98158.66
2022-10-19T19:09:07.429Z,98168.84
2022-10-19T19:11:37.034Z,98162.50
2022-10-19T19:14:07.468Z,98162.47
2022-10-19T19:16:35.675Z,98152.00
2022-10-19T19:19:02.504Z,98156.94
2022-10-19T19:21:30.425Z,98158.06
2022-10-19T19:23:59.689Z,98164.16
2022-10-19T19:26:29.071Z,98158.31
2022-10-19T19:28:55.680Z,98161.63
2022-10-19T19:31:23.958Z,98160.47
2022-10-19T19:33:50.606Z,98165.47
2022-10-19T19:36:18.607Z,98161.88
2022-10-19T19:38:45.819Z,98163.84
2022-10-19T19:41:14.833Z,98156.13
2022-10-19T19:43:42.049Z,98158.88
2022-10-19T19:46:12.547Z,98166.59
2022-10-19T19:48:42.730Z,98171.06
2022-10-19T19:51:10.378Z,98165.25
2022-10-19T19:53:37.980Z,98168.25
2022-10-19T19:56:06.222Z,98164.69
2022-10-19T19:58:32.776Z,98163.63
2022-10-19T20:00:59.301Z,98159.72
2022-10-19T20:03:25.879Z,98161.97
2022-10-19T20:05:53.736Z,98161.41
2022-10-19T20:08:20.280Z,98158.09
2022-10-19T20:10:46.827Z,98167.50
2022-10-19T20:13:13.397Z,98160.03
2022-10-19T20:15:39.935Z,98160.28
2022-10-19T20:18:06.723Z,98161.13
2022-10-19T20:20:33.257Z,98156.72
2022-10-19T20:23:01.164Z,98161.13
2022-10-19T20:25:27.724Z,98161.75
2022-10-19T20:27:54.295Z,98170.59
2022-10-19T20:30:20.879Z,98166.75
2022-10-19T20:32:47.428Z,98176.72
2022-10-19T20:35:14.737Z,98171.47
2022-10-19T20:37:41.317Z,98170.91
2022-10-19T20:40:11.031Z,98170.66
2022-10-19T20:42:37.978Z,98168.47
2022-10-19T20:45:05.718Z,98181.16
2022-10-19T20:47:32.284Z,98179.53
2022-10-19T20:49:58.896Z,98184.81
2022-10-19T20:52:25.559Z,98175.72
2022-10-19T20:54:52.108Z,98173.78
2022-10-19T20:57:20.012Z,98186.75
2022-10-19T20:59:46.547Z,98180.13
2022-10-19T21:02:13.091Z,98177.09
2022-10-19T21:04:39.808Z,98174.66
2022-10-19T21:07:06.432Z,98173.84
2022-10-19T21:09:33.041Z,98178.81
2022-10-19T21:11:59.886Z,98169.41
2022-10-19T21:14:29.255Z,98166.94
2022-10-19T21:16:56.588Z,98156.47
2022-10-19T21:19:25.440Z,98159.81
2022-10-19T21:21:53.808Z,98157.59
2022-10-19T21:24:22.637Z,98155.41
2022-10-19T21:26:49.249Z,98162.56
2022-10-19T21:29:17.014Z,98163.13
2022-10-19T21:31:48.781Z,98168.09
2022-10-19T21:34:18.673Z,98167.56
2022-10-19T21:36:45.546Z,98163.16
2022-10-19T21:39:12.113Z,98173.09
2022-10-19T21:41:38.853Z,98162.06
2022-10-19T21:44:05.623Z,98164.84
2022-10-19T21:46:32.188Z,98157.13
2022-10-19T21:49:00.107Z,98163.75
2022-10-19T21:51:33.788Z,98157.94
2022-10-19T21:54:00.698Z,98147.19
2022-10-19T21:56:27.547Z,98156.00
2022-10-19T21:58:54.370Z,98159.31
2022-10-19T22:01:24.085Z,98170.91
2022-10-19T22:03:55.069Z,98164.28
2022-10-19T22:06:23.573Z,98156.56
2022-10-19T22:08:50.229Z,98147.47
2022-10-19T22:11:16.809Z,98148.59
2022-10-19T22:13:43.581Z,98153.28
2022-10-19T22:16:13.391Z,98158.25
2022-10-19T22:18:40.197Z,98163.75
2022-10-19T22:21:09.221Z,98157.16
2022-10-19T22:23:37.208Z,98156.34
2022-10-19T22:26:12.302Z,98158.25
2022-10-19T22:28:38.979Z,98160.75
2022-10-19T22:31:05.765Z,98157.16
2022-10-19T22:33:32.439Z,98157.69
2022-10-19T22:36:00.644Z,98162.91
2022-10-19T22:38:28.424Z,98158.22
2022-10-19T22:40:56.290Z,98147.75
2022-10-19T22:43:22.828Z,98151.31
2022-10-19T22:45:50.201Z,98149.66
2022-10-19T22:48:17.545Z,98151.31
2022-10-19T22:50:44.407Z,98152.09
2022-10-19T22:53:11.445Z,98146.56
2022-10-19T22:55:38.741Z,98149.88
2022-10-19T22:58:08.801Z,98140.53
2022-10-19T23:00:36.264Z,98142.44
2022-10-19T23:03:02.845Z,98138.06
2022-10-19T23:05:29.603Z,98138.00
2022-10-19T23:07:56.166Z,98136.78
2022-10-19T23:10:23.108Z,98147.28
2022-10-19T23:12:49.934Z,98144.72
2022-10-19T23:15:18.672Z,98143.53
2022-10-19T23:17:45.263Z,98139.69
2022-10-19T23:20:12.996Z,98143.00
2022-10-19T23:22:40.005Z,98135.31
2022-10-19T23:25:07.725Z,98132.78
2022-10-19T23:27:34.610Z,98137.19
2022-10-19T23:30:02.499Z,98137.47
2022-10-19T23:32:30.420Z,98130.84
2022-10-19T23:34:57.203Z,98132.81
2022-10-19T23:37:23.811Z,98130.28
2022-10-19T23:39:50.343Z,98131.72
2022-10-19T23:42:16.980Z,98138.47
2022-10-19T23:44:43.543Z,98144.53
2022-10-19T23:47:10.108Z,98157.63
2022-10-19T23:49:38.036Z,98155.59
2022-10-19T23:52:04.848Z,98150.97
2022-10-19T23:54:31.416Z,98144.50
2022-10-19T23:56:58.107Z,98142.03
2022-10-19T23:59:24.804Z,98140.34
